createdAt,value
2022-11-01T00:01:54.345Z,23.20
2022-11-01T00:04:22.824Z,24.02
2022-11-01T00:06:51.363Z,24.07
2022-11-01T00:09:19.582Z,23.77
2022-11-01T00:11:47.284Z,28.13
2022-11-01T00:14:17.545Z,23.92
2022-11-01T00:16:45.192Z,22.70
2022-11-01T00:19:13.130Z,20.77
2022-11-01T00:21:40.873Z,18.83
2022-11-01T00:24:08.713Z,22.40
2022-11-01T00:26:36.458Z,21.38
2022-11-01T00:29:04.554Z,21.85
2022-11-01T00:31:33.649Z,15.90
2022-11-01T00:34:03.791Z,17.83
2022-11-01T00:36:31.573Z,13.68
2022-11-01T00:38:59.209Z,16.75
2022-11-01T00:41:26.813Z,18.17
2022-11-01T00:43:54.559Z,17.50
2022-11-01T00:46:22.173Z,15.20
2022-11-01T00:48:51.200Z,16.52
2022-11-01T00:51:19.564Z,16.50
2022-11-01T00:53:47.082Z,23.95
2022-11-01T00:56:14.646Z,17.35
2022-11-01T00:58:42.448Z,15.57
2022-11-01T01:01:10.319Z,16.05
2022-11-01T01:03:38.044Z,16.38
2022-11-01T01:06:07.398Z,12.35
2022-11-01T01:08:35.168Z,21.40
2022-11-01T01:11:02.729Z,16.75
2022-11-01T01:13:30.332Z,13.95
2022-11-01T01:15:58.566Z,20.00
2022-11-01T01:18:26.118Z,13.03
2022-11-01T01:21:01.257Z,14.27
2022-11-01T01:23:33.243Z,16.38
2022-11-01T01:26:01.017Z,21.47
2022-11-01T01:28:29.022Z,16.27
2022-11-01T01:30:57.688Z,15.52
2022-11-01T01:33:25.266Z,14.65
2022-11-01T01:35:53.014Z,14.67
2022-11-01T01:38:20.582Z,13.25
2022-11-01T01:40:49.722Z,17.17
2022-11-01T01:43:17.262Z,16.75
2022-11-01T01:45:45.084Z,12.68
2022-11-01T01:48:17.150Z,16.88
2022-11-01T01:50:49.687Z,14.32
2022-11-01T01:53:21.796Z,13.75
2022-11-01T01:55:55.215Z,15.70
2022-11-01T01:58:24.498Z,17.35
2022-11-01T02:00:53.940Z,19.02
2022-11-01T02:03:22.876Z,11.80
2022-11-01T02:05:52.652Z,14.10
2022-11-01T02:08:27.966Z,13.52
2022-11-01T02:10:59.597Z,15.07
2022-11-01T02:13:27.219Z,14.68
2022-11-01T02:16:05.496Z,9.60
2022-11-01T02:18:37.366Z,13.65
2022-11-01T02:21:24.221Z,17.02
2022-11-01T02:24:06.739Z,15.13
2022-11-01T02:27:00.728Z,12.77
2022-11-01T02:29:46.934Z,10.45
2022-11-01T02:32:19.109Z,15.80
2022-11-01T02:34:51.684Z,18.25
2022-11-01T02:37:23.880Z,14.93
2022-11-01T02:39:53.752Z,11.90
2022-11-01T02:42:23.066Z,12.15
2022-11-01T02:44:54.782Z,13.35
2022-11-01T02:47:24.733Z,8.55
2022-11-01T02:49:55.739Z,12.20
2022-11-01T02:52:25.325Z,15.65
2022-11-01T02:54:54.816Z,10.25
2022-11-01T02:57:31.998Z,9.45
2022-11-01T03:00:05.101Z,8.50
2022-11-01T03:02:41.440Z,15.57
2022-11-01T03:05:14.538Z,9.15
2022-11-01T03:07:44.426Z,10.43
2022-11-01T03:10:12.282Z,9.97
2022-11-01T03:12:49.742Z,12.75
2022-11-01T03:15:22.194Z,10.55
2022-11-01T03:17:55.764Z,14.50
2022-11-01T03:20:26.609Z,10.32
2022-11-01T03:22:56.669Z,8.30
2022-11-01T03:25:40.620Z,14.15
2022-11-01T03:28:11.354Z,11.85
2022-11-01T03:30:43.098Z,9.18
2022-11-01T03:33:13.182Z,13.35
2022-11-01T03:35:41.663Z,11.35
2022-11-01T03:38:11.646Z,8.65
2022-11-01T03:40:43.127Z,15.25
2022-11-01T03:43:13.564Z,11.38
2022-11-01T03:45:41.314Z,9.00
2022-11-01T03:48:09.160Z,11.90
2022-11-01T03:50:39.987Z,13.88
2022-11-01T03:53:07.651Z,10.80
2022-11-01T03:55:35.419Z,8.77
2022-11-01T03:58:03.356Z,10.93
2022-11-01T04:00:33.878Z,11.48
2022-11-01T04:03:02.015Z,11.27
2022-11-01T04:05:31.226Z,8.88
2022-11-01T04:08:00.272Z,10.80
2022-11-01T04:10:31.533Z,10.23
2022-11-01T04:12:59.930Z,13.32
2022-11-01T04:15:46.708Z,14.15
2022-11-01T04:18:33.873Z,12.02
2022-11-01T04:21:04.667Z,9.10
2022-11-01T04:23:33.700Z,14.55
2022-11-01T04:26:01.267Z,8.35
2022-11-01T04:28:28.765Z,10.80
2022-11-01T04:30:56.623Z,13.23
2022-11-01T04:33:24.369Z,6.28
2022-11-01T04:35:52.077Z,12.65
2022-11-01T04:38:19.677Z,10.73
2022-11-01T04:40:48.669Z,12.40
2022-11-01T04:43:18.290Z,10.85
2022-11-01T04:45:46.084Z,6.25
2022-11-01T04:48:16.948Z,14.20
2022-11-01T04:50:45.871Z,9.70
2022-11-01T04:53:28.909Z,9.17
2022-11-01T04:55:57.840Z,6.57
2022-11-01T04:58:25.419Z,11.38
2022-11-01T05:00:53.037Z,7.95
2022-11-01T05:03:20.555Z,10.27
2022-11-01T05:05:48.316Z,8.93
2022-11-01T05:08:16.119Z,9.13
2022-11-01T05:10:46.453Z,11.23
2022-11-01T05:13:15.364Z,8.43
2022-11-01T05:15:53.580Z,10.35
2022-11-01T05:18:31.357Z,8.30
2022-11-01T05:20:59.137Z,9.20
2022-11-01T05:23:26.862Z,12.15
2022-11-01T05:25:54.607Z,7.63
2022-11-01T05:28:23.907Z,5.97
2022-11-01T05:30:51.458Z,8.13
2022-11-01T05:33:19.030Z,11.82
2022-11-01T05:35:46.867Z,9.43
2022-11-01T05:38:14.589Z,8.00
2022-11-01T05:40:42.115Z,6.78
2022-11-01T05:43:09.764Z,7.57
2022-11-01T05:45:39.733Z,9.57
2022-11-01T05:48:07.478Z,7.90
2022-11-01T05:50:35.092Z,8.40
2022-11-01T05:53:07.003Z,6.55
2022-11-01T05:55:36.570Z,6.28
2022-11-01T05:58:04.151Z,7.30
2022-11-01T06:00:32.278Z,8.38
2022-11-01T06:03:02.192Z,8.00
2022-11-01T06:05:31.914Z,10.30
2022-11-01T06:08:02.095Z,10.73
2022-11-01T06:10:29.764Z,8.80
2022-11-01T06:12:58.609Z,10.18
2022-11-01T06:15:27.389Z,8.32
2022-11-01T06:17:58.690Z,8.70
2022-11-01T06:20:29.590Z,10.27
2022-11-01T06:22:57.151Z,9.48
2022-11-01T06:25:25.775Z,8.50
2022-11-01T06:27:54.447Z,9.07
2022-11-01T06:30:22.060Z,6.22
2022-11-01T06:32:49.804Z,6.90
2022-11-01T06:35:17.368Z,5.35
2022-11-01T06:37:46.848Z,7.60
2022-11-01T06:40:14.458Z,5.33
2022-11-01T06:42:46.411Z,9.77
2022-11-01T06:45:14.609Z,6.28
2022-11-01T06:47:47.410Z,3.93
2022-11-01T06:50:15.175Z,7.32
2022-11-01T06:52:42.940Z,5.77
2022-11-01T06:55:12.286Z,6.20
2022-11-01T06:57:40.038Z,6.55
2022-11-01T07:00:09.340Z,7.40
2022-11-01T07:02:37.218Z,7.72
2022-11-01T07:05:05.213Z,8.70
2022-11-01T07:07:32.867Z,7.65
2022-11-01T07:10:00.470Z,3.53
2022-11-01T07:12:29.549Z,4.80
2022-11-01T07:14:57.244Z,4.93
2022-11-01T07:17:25.188Z,4.88
2022-11-01T07:19:52.731Z,5.57
2022-11-01T07:22:20.280Z,6.63
2022-11-01T07:24:48.051Z,4.00
2022-11-01T07:27:20.328Z,2.90
2022-11-01T07:29:49.946Z,5.80
2022-11-01T07:32:17.696Z,4.40
2022-11-01T07:34:45.624Z,3.47
2022-11-01T07:37:14.240Z,4.72
2022-11-01T07:39:41.965Z,1.63
2022-11-01T07:42:10.010Z,5.00
2022-11-01T07:44:37.787Z,5.53
2022-11-01T07:47:06.768Z,4.63
2022-11-01T07:49:34.349Z,3.67
2022-11-01T07:52:04.326Z,3.63
2022-11-01T07:54:32.058Z,2.75
2022-11-01T07:57:00.900Z,2.40
2022-11-01T07:59:28.661Z,2.00
2022-11-01T08:01:56.474Z,4.60
2022-11-01T08:04:25.573Z,2.30
2022-11-01T08:06:53.361Z,2.47
2022-11-01T08:09:22.124Z,3.50
2022-11-01T08:11:50.774Z,4.82
2022-11-01T08:14:18.442Z,2.85
2022-11-01T08:16:49.714Z,3.58
2022-11-01T08:19:18.304Z,3.05
2022-11-01T08:21:47.394Z,2.30
2022-11-01T08:24:15.178Z,2.35
2022-11-01T08:26:42.712Z,3.33
2022-11-01T08:29:24.579Z,6.65
2022-11-01T08:31:52.312Z,1.75
2022-11-01T08:34:20.347Z,5.20
2022-11-01T08:36:49.527Z,3.50
2022-11-01T08:39:17.237Z,3.65
2022-11-01T08:41:49.065Z,2.97
2022-11-01T08:44:17.626Z,4.03
2022-11-01T08:46:45.466Z,4.18
2022-11-01T08:49:13.507Z,11.95
2022-11-01T08:51:41.544Z,6.13
2022-11-01T08:54:10.747Z,3.47
2022-11-01T08:56:38.601Z,3.33
2022-11-01T08:59:06.303Z,4.25
2022-11-01T09:01:34.136Z,3.73
2022-11-01T09:04:02.005Z,3.35
2022-11-01T09:06:33.782Z,6.13
2022-11-01T09:09:04.036Z,7.18
2022-11-01T09:11:33.128Z,6.35
2022-11-01T09:14:01.382Z,6.05
2022-11-01T09:16:29.975Z,6.80
2022-11-01T09:19:01.701Z,12.50
2022-11-01T09:21:31.766Z,9.27
2022-11-01T09:23:59.904Z,12.13
2022-11-01T09:26:28.307Z,6.40
2022-11-01T09:28:58.950Z,8.60
2022-11-01T09:31:31.599Z,8.45
2022-11-01T09:34:00.410Z,5.00
2022-11-01T09:36:29.410Z,7.95
2022-11-01T09:38:59.412Z,10.05
2022-11-01T09:41:32.813Z,9.85
2022-11-01T09:44:03.484Z,10.15
2022-11-01T09:46:34.214Z,13.05
2022-11-01T09:49:03.560Z,11.52
2022-11-01T09:51:31.354Z,13.93
2022-11-01T09:54:04.216Z,6.78
2022-11-01T09:56:37.659Z,7.05
2022-11-01T09:59:16.175Z,12.82
2022-11-01T10:01:51.659Z,7.25
2022-11-01T10:04:28.560Z,12.70
2022-11-01T10:07:01.292Z,13.27
2022-11-01T10:09:38.502Z,12.40
2022-11-01T10:12:31.384Z,11.57
2022-11-01T10:15:10.390Z,14.70
2022-11-01T10:17:52.318Z,11.93
2022-11-01T10:20:21.587Z,15.48
2022-11-01T10:22:50.298Z,10.38
2022-11-01T10:25:22.859Z,15.25
2022-11-01T10:27:59.839Z,19.33
2022-11-01T10:30:30.129Z,18.23
2022-11-01T10:33:02.675Z,14.75
2022-11-01T10:35:33.477Z,12.60
2022-11-01T10:38:22.885Z,15.90
2022-11-01T10:40:55.402Z,9.55
2022-11-01T10:43:24.703Z,10.35
2022-11-01T10:45:56.401Z,9.73
2022-11-01T10:48:30.482Z,14.77
2022-11-01T10:51:01.091Z,8.70
2022-11-01T10:53:31.203Z,14.95
2022-11-01T10:56:01.946Z,7.47
2022-11-01T10:58:37.403Z,9.40
2022-11-01T11:01:08.444Z,9.45
2022-11-01T11:03:36.653Z,12.95
2022-11-01T11:06:07.078Z,9.85
2022-11-01T11:08:36.355Z,11.00
2022-11-01T11:11:10.559Z,10.10
2022-11-01T11:13:41.842Z,8.27
2022-11-01T11:16:16.625Z,11.32
2022-11-01T11:19:01.183Z,7.00
2022-11-01T11:21:34.204Z,11.45
2022-11-01T11:24:02.393Z,10.50
2022-11-01T11:26:38.754Z,11.77
2022-11-01T11:29:07.117Z,12.35
2022-11-01T11:31:36.605Z,10.33
2022-11-01T11:34:22.745Z,11.10
2022-11-01T11:36:52.123Z,8.23
2022-11-01T11:39:26.126Z,8.13
2022-11-01T11:41:53.830Z,13.20
2022-11-01T11:44:40.478Z,11.68
2022-11-01T11:47:19.876Z,8.88
2022-11-01T11:49:48.553Z,9.73
2022-11-01T11:52:18.323Z,12.57
2022-11-01T11:54:46.982Z,7.60
2022-11-01T11:57:18.888Z,12.05
2022-11-01T11:59:50.493Z,7.70
2022-11-01T12:02:23.566Z,14.80
2022-11-01T12:04:57.545Z,10.70
2022-11-01T12:07:28.813Z,8.63
2022-11-01T12:09:57.102Z,12.20
2022-11-01T12:12:26.573Z,12.80
2022-11-01T12:14:54.890Z,8.73
2022-11-01T12:17:36.498Z,11.25
2022-11-01T12:20:19.958Z,8.52
2022-11-01T12:22:50.842Z,11.45
2022-11-01T12:25:21.815Z,9.45
2022-11-01T12:27:57.335Z,9.87
2022-11-01T12:30:26.174Z,9.57
2022-11-01T12:32:57.395Z,7.97
2022-11-01T12:35:29.471Z,10.93
2022-11-01T12:38:05.729Z,15.60
2022-11-01T12:40:37.139Z,7.50
2022-11-01T12:43:12.834Z,8.30
2022-11-01T12:45:47.033Z,8.33
2022-11-01T12:48:22.362Z,11.23
2022-11-01T12:50:53.616Z,7.78
2022-11-01T12:53:24.059Z,10.05
2022-11-01T12:55:52.098Z,10.23
2022-11-01T12:58:23.014Z,6.38
2022-11-01T13:01:06.542Z,7.72
2022-11-01T13:03:45.522Z,9.25
2022-11-01T13:06:23.585Z,13.98
2022-11-01T13:08:57.542Z,9.27
2022-11-01T13:11:29.004Z,10.82
2022-11-01T13:14:08.785Z,9.27
2022-11-01T13:16:40.030Z,9.23
2022-11-01T13:19:15.244Z,7.85
2022-11-01T13:21:46.795Z,11.75
2022-11-01T13:24:17.685Z,8.85
2022-11-01T13:26:48.986Z,7.83
2022-11-01T13:29:19.057Z,11.00
2022-11-01T13:31:59.180Z,11.82
2022-11-01T13:34:38.187Z,9.90
2022-11-01T13:37:10.922Z,12.07
2022-11-01T13:39:48.246Z,9.02
2022-11-01T13:42:17.459Z,8.40
2022-11-01T13:44:48.038Z,6.70
2022-11-01T13:47:37.588Z,8.93
2022-11-01T13:50:44.017Z,5.82
2022-11-01T13:53:18.623Z,9.13
2022-11-01T13:55:50.954Z,10.40
2022-11-01T13:58:19.905Z,12.38
2022-11-01T14:00:50.424Z,11.07
2022-11-01T14:03:21.132Z,9.67
2022-11-01T14:06:20.512Z,5.90
2022-11-01T14:08:48.639Z,12.77
2022-11-01T14:11:48.627Z,20.08
2022-11-01T14:14:54.060Z,14.48
2022-11-01T14:17:40.165Z,8.65
2022-11-01T14:20:50.534Z,10.77
2022-11-01T14:23:48.772Z,9.60
2022-11-01T14:26:49.203Z,6.57
2022-11-01T14:29:17.033Z,9.02
2022-11-01T14:31:47.778Z,7.50
2022-11-01T14:34:31.813Z,7.80
2022-11-01T14:37:05.524Z,11.43
2022-11-01T14:39:37.188Z,11.13
2022-11-01T14:42:10.605Z,10.68
2022-11-01T14:44:39.771Z,9.32
2022-11-01T14:47:13.913Z,8.07
2022-11-01T14:49:43.958Z,7.47
2022-11-01T14:52:16.576Z,9.07
2022-11-01T14:54:47.260Z,9.53
2022-11-01T14:57:25.749Z,9.43
2022-11-01T14:59:53.546Z,12.52
2022-11-01T15:02:22.370Z,10.90
2022-11-01T15:04:50.834Z,16.38
2022-11-01T15:07:27.609Z,9.52
2022-11-01T15:10:00.254Z,11.77
2022-11-01T15:12:32.128Z,10.63
2022-11-01T15:15:01.059Z,11.05
2022-11-01T15:17:30.716Z,11.73
2022-11-01T15:19:59.357Z,8.23
2022-11-01T15:22:29.444Z,13.18
2022-11-01T15:24:58.538Z,6.87
2022-11-01T15:27:33.600Z,9.02
2022-11-01T15:30:02.411Z,14.77
2022-11-01T15:32:32.450Z,9.13
2022-11-01T15:35:03.306Z,10.90
2022-11-01T15:37:33.710Z,11.88
2022-11-01T15:40:02.361Z,7.38
2022-11-01T15:42:34.016Z,9.03
2022-11-01T15:45:19.731Z,7.45
2022-11-01T15:47:47.865Z,7.72
2022-11-01T15:50:16.623Z,8.23
2022-11-01T15:52:46.797Z,10.30
2022-11-01T15:55:18.928Z,15.07
2022-11-01T15:57:49.512Z,8.15
2022-11-01T16:00:18.772Z,11.90
2022-11-01T16:02:49.410Z,7.17
2022-11-01T16:05:19.629Z,6.90
2022-11-01T16:07:47.958Z,10.63
2022-11-01T16:10:18.044Z,7.68
2022-11-01T16:12:46.431Z,8.87
2022-11-01T16:15:22.248Z,8.25
2022-11-01T16:17:55.817Z,7.75
2022-11-01T16:20:30.250Z,7.47
2022-11-01T16:22:58.612Z,9.43
2022-11-01T16:25:27.720Z,8.17
2022-11-01T16:28:01.550Z,9.10
2022-11-01T16:30:42.882Z,11.07
2022-11-01T16:33:17.769Z,9.45
2022-11-01T16:35:46.346Z,5.00
2022-11-01T16:38:25.609Z,8.05
2022-11-01T16:40:55.967Z,8.18
2022-11-01T16:43:24.086Z,9.10
2022-11-01T16:45:54.097Z,11.17
2022-11-01T16:48:24.298Z,5.57
2022-11-01T16:50:53.562Z,6.82
2022-11-01T16:53:21.571Z,5.85
2022-11-01T16:55:49.563Z,10.80
2022-11-01T16:58:19.091Z,7.33
2022-11-01T17:00:55.426Z,7.18
2022-11-01T17:03:24.005Z,8.82
2022-11-01T17:05:56.262Z,14.70
2022-11-01T17:08:25.321Z,9.87
2022-11-01T17:10:54.047Z,5.10
2022-11-01T17:13:21.818Z,12.97
2022-11-01T17:15:52.150Z,12.70
2022-11-01T17:18:30.499Z,10.18
2022-11-01T17:20:59.610Z,8.93
2022-11-01T17:23:29.064Z,7.10
2022-11-01T17:25:57.629Z,12.02
2022-11-01T17:28:25.947Z,7.35
2022-11-01T17:30:53.708Z,8.90
2022-11-01T17:33:23.178Z,10.00
2022-11-01T17:35:50.950Z,8.30
2022-11-01T17:38:24.504Z,9.93
2022-11-01T17:40:56.825Z,9.60
2022-11-01T17:43:24.576Z,15.70
2022-11-01T17:45:52.322Z,7.47
2022-11-01T17:48:20.435Z,9.05
2022-11-01T17:50:49.316Z,12.93
2022-11-01T17:53:18.239Z,13.70
2022-11-01T17:55:47.145Z,8.00
2022-11-01T17:58:15.722Z,8.77
2022-11-01T18:00:43.911Z,8.20
2022-11-01T18:03:14.710Z,9.32
2022-11-01T18:05:42.466Z,12.90
2022-11-01T18:08:17.757Z,10.50
2022-11-01T18:10:52.945Z,10.90
2022-11-01T18:13:36.758Z,9.82
2022-11-01T18:16:10.106Z,9.37
2022-11-01T18:18:51.953Z,6.40
2022-11-01T18:21:25.451Z,6.53
2022-11-01T18:23:55.659Z,9.27
2022-11-01T18:26:24.985Z,9.07
2022-11-01T18:28:55.407Z,7.90
2022-11-01T18:31:25.993Z,10.50
2022-11-01T18:33:58.684Z,11.77
2022-11-01T18:36:29.794Z,6.28
2022-11-01T18:39:08.192Z,5.60
2022-11-01T18:41:35.897Z,8.20
2022-11-01T18:44:03.897Z,8.38
2022-11-01T18:46:39.270Z,10.82
2022-11-01T18:49:10.430Z,9.43
2022-11-01T18:51:39.594Z,9.32
2022-11-01T18:54:22.314Z,13.38
2022-11-01T18:56:52.108Z,9.07
2022-11-01T18:59:42.820Z,10.02
2022-11-01T19:02:14.655Z,9.10
2022-11-01T19:04:44.144Z,11.90
2022-11-01T19:07:13.590Z,12.82
2022-11-01T19:09:44.700Z,10.57
2022-11-01T19:12:15.547Z,10.85
2022-11-01T19:14:44.327Z,12.90
2022-11-01T19:17:20.933Z,5.88
2022-11-01T19:19:48.557Z,8.73
2022-11-01T19:22:38.766Z,12.57
2022-11-01T19:25:17.825Z,11.25
2022-11-01T19:27:45.828Z,9.38
2022-11-01T19:30:24.506Z,7.68
2022-11-01T19:32:53.269Z,13.00
2022-11-01T19:35:22.537Z,10.02
2022-11-01T19:37:52.075Z,8.40
2022-11-01T19:40:28.055Z,11.35
2022-11-01T19:42:56.145Z,8.45
2022-11-01T19:45:29.194Z,6.87
2022-11-01T19:47:58.010Z,9.35
2022-11-01T19:50:27.326Z,7.47
2022-11-01T19:52:57.193Z,6.30
2022-11-01T19:55:46.731Z,12.77
2022-11-01T19:58:24.890Z,7.55
2022-11-01T20:01:03.155Z,11.48
2022-11-01T20:03:39.240Z,8.40
2022-11-01T20:06:12.086Z,9.10
2022-11-01T20:08:40.687Z,12.27
2022-11-01T20:11:10.305Z,14.77
2022-11-01T20:13:38.323Z,13.63
2022-11-01T20:16:06.386Z,11.57
2022-11-01T20:18:34.210Z,14.02
2022-11-01T20:21:05.640Z,9.77
2022-11-01T20:23:33.804Z,14.88
2022-11-01T20:26:01.666Z,10.93
2022-11-01T20:28:30.679Z,11.50
2022-11-01T20:30:58.222Z,5.78
2022-11-01T20:33:26.513Z,13.98
2022-11-01T20:35:54.140Z,11.10
2022-11-01T20:38:22.036Z,11.85
2022-11-01T20:40:49.613Z,12.80
2022-11-01T20:43:17.594Z,9.63
2022-11-01T20:45:46.698Z,7.57
2022-11-01T20:48:14.657Z,11.93
2022-11-01T20:50:42.621Z,10.65
2022-11-01T20:53:10.783Z,11.07
2022-11-01T20:55:38.821Z,17.38
2022-11-01T20:58:06.784Z,12.38
2022-11-01T21:00:34.879Z,11.13
2022-11-01T21:03:08.740Z,11.03
2022-11-01T21:05:36.906Z,11.13
2022-11-01T21:08:12.502Z,14.05
2022-11-01T21:10:41.261Z,14.27
2022-11-01T21:13:21.693Z,8.77
2022-11-01T21:15:49.833Z,9.47
2022-11-01T21:18:39.786Z,11.30
2022-11-01T21:21:28.658Z,11.82
2022-11-01T21:23:57.263Z,8.27
2022-11-01T21:26:41.505Z,12.13
2022-11-01T21:29:17.123Z,12.32
2022-11-01T21:31:45.193Z,13.02
2022-11-01T21:34:26.332Z,10.60
2022-11-01T21:36:54.146Z,9.77
2022-11-01T21:39:23.462Z,15.02
2022-11-01T21:41:52.750Z,15.88
2022-11-01T21:44:25.780Z,13.45
2022-11-01T21:46:55.184Z,11.35
2022-11-01T21:49:29.495Z,11.00
2022-11-01T21:51:58.882Z,12.18
2022-11-01T21:54:27.034Z,15.15
2022-11-01T21:56:54.779Z,12.60
2022-11-01T21:59:22.360Z,13.52
2022-11-01T22:01:50.336Z,13.48
2022-11-01T22:04:22.154Z,13.48
2022-11-01T22:06:52.830Z,14.38
2022-11-01T22:09:22.573Z,10.95
2022-11-01T22:11:50.311Z,10.70
2022-11-01T22:14:18.053Z,13.07
2022-11-01T22:16:45.842Z,11.38
2022-11-01T22:19:14.176Z,9.68
2022-11-01T22:21:42.033Z,10.45
2022-11-01T22:24:11.277Z,14.30
2022-11-01T22:26:38.825Z,11.10
2022-11-01T22:29:07.771Z,9.20
2022-11-01T22:31:36.472Z,10.52
2022-11-01T22:34:04.029Z,12.20
2022-11-01T22:36:34.517Z,12.18
2022-11-01T22:39:03.749Z,10.35
2022-11-01T22:41:36.668Z,11.43
2022-11-01T22:44:07.022Z,9.38
2022-11-01T22:46:43.804Z,13.50
2022-11-01T22:49:15.123Z,10.82
2022-11-01T22:51:45.116Z,12.83
2022-11-01T22:54:31.536Z,9.93
2022-11-01T22:57:03.016Z,8.35
2022-11-01T22:59:33.392Z,9.65
2022-11-01T23:02:16.971Z,6.95
2022-11-01T23:04:44.648Z,7.88
2022-11-01T23:07:22.181Z,9.70
2022-11-01T23:09:50.250Z,11.68
2022-11-01T23:12:41.342Z,9.90
2022-11-01T23:15:22.454Z,9.00
2022-11-01T23:17:50.415Z,10.35
2022-11-01T23:20:18.506Z,9.43
2022-11-01T23:22:46.074Z,10.90
2022-11-01T23:25:13.958Z,7.95
2022-11-01T23:27:45.176Z,15.80
2022-11-01T23:30:14.933Z,13.40
2022-11-01T23:32:42.485Z,9.70
2022-11-01T23:35:14.193Z,15.30
2022-11-01T23:37:44.067Z,13.57
2022-11-01T23:40:16.827Z,11.70
2022-11-01T23:42:45.972Z,14.18
2022-11-01T23:45:32.051Z,16.58
2022-11-01T23:48:00.646Z,11.90
2022-11-01T23:50:31.106Z,9.77
2022-11-01T23:53:00.453Z,16.20
2022-11-01T23:55:30.660Z,11.98
2022-11-01T23:58:02.334Z,14.55
